Time;durP1;ratioP1;P1;durP2;ratioP2;P2;SDS_P1;SDS_P2;PMS_P1;PMS_P2;Temp;Humidity;BMP_temperature;BMP_pressure;BME280_temperature;BME280_humidity;BME280_pressure;Samples;Min_cycle;Max_cycle;Signal;HPM_P1;HPM_P2
2023/04/01 00:00:00;;;;;;;5.40;3.07;;;;;;;;;;750677;182;645509;-78
2023/04/01 00:02:26;;;;;;;4.50;2.70;;;;;;;;;;774226;179;633873;-79
2023/04/01 00:04:52;;;;;;;5.83;3.10;;;;;;;;;;764655;183;636570;-79
2023/04/01 00:07:18;;;;;;;5.03;3.90;;;;;;;;;;769671;181;627186;-79
2023/04/01 00:09:43;;;;;;;5.80;2.90;;;;;;;;;;762257;182;627253;-79
2023/04/01 00:12:09;;;;;;;4.60;2.90;;;;;;;;;;763793;183;633488;-79
2023/04/01 00:14:36;;;;;;;10.57;3.67;;;;;;;;;;768604;182;636066;-79
2023/04/01 00:17:01;;;;;;;4.37;2.60;;;;;;;;;;761592;181;621533;-78
2023/04/01 00:19:27;;;;;;;4.40;2.60;;;;;;;;;;761896;181;633591;-79
2023/04/01 00:21:53;;;;;;;5.20;3.23;;;;;;;;;;770366;181;641931;-80
2023/04/01 00:24:19;;;;;;;6.30;3.13;;;;;;;;;;757757;182;630845;-80
2023/04/01 00:26:44;;;;;;;4.60;3.33;;;;;;;;;;761932;183;665409;-79
2023/04/01 00:29:11;;;;;;;6.23;3.47;;;;;;;;;;758865;184;628277;-80
2023/04/01 00:31:36;;;;;;;4.13;3.30;;;;;;;;;;755508;185;628334;-76
2023/04/01 00:34:02;;;;;;;4.33;2.73;;;;;;;;;;754626;184;638793;-78
2023/04/01 00:36:28;;;;;;;10.63;3.87;;;;;;;;;;751440;184;628181;-79
2023/04/01 00:38:54;;;;;;;8.30;3.47;;;;;;;;;;756580;185;630698;-79
2023/04/01 00:41:20;;;;;;;8.37;3.33;;;;;;;;;;765444;182;643065;-77
2023/04/01 00:43:45;;;;;;;7.27;3.10;;;;;;;;;;752778;185;616833;-79
2023/04/01 00:46:11;;;;;;;7.70;3.90;;;;;;;;;;764145;184;617979;-79
2023/04/01 00:48:37;;;;;;;5.40;3.50;;;;;;;;;;754539;184;623182;-78
2023/04/01 00:51:03;;;;;;;13.77;3.53;;;;;;;;;;772029;178;643924;-79
2023/04/01 00:53:29;;;;;;;5.73;3.27;;;;;;;;;;764765;183;644417;-79
2023/04/01 00:55:57;;;;;;;6.00;3.30;;;;;;;;;;758251;182;643906;-79
2023/04/01 00:58:23;;;;;;;7.30;3.60;;;;;;;;;;763557;182;623954;-77
2023/04/01 01:00:49;;;;;;;4.93;3.40;;;;;;;;;;759325;181;642078;-79
2023/04/01 01:03:15;;;;;;;4.10;3.20;;;;;;;;;;761440;183;626683;-79
2023/04/01 01:05:41;;;;;;;5.13;3.10;;;;;;;;;;759363;183;630793;-79
2023/04/01 01:08:07;;;;;;;6.43;3.67;;;;;;;;;;761518;181;630948;-79
2023/04/01 01:10:33;;;;;;;7.33;3.53;;;;;;;;;;752685;184;638505;-78
2023/04/01 01:13:05;;;;;;;4.27;2.77;;;;;;;;;;765455;181;644429;-78
2023/04/01 01:15:31;;;;;;;5.80;4.07;;;;;;;;;;765724;181;622924;-78
2023/04/01 01:17:59;;;;;;;7.50;3.67;;;;;;;;;;763998;181;634840;-79
2023/04/01 01:20:31;;;;;;;8.33;4.13;;;;;;;;;;764564;183;629614;-79
2023/04/01 01:23:03;;;;;;;6.40;3.70;;;;;;;;;;765000;181;631179;-79
2023/04/01 01:25:32;;;;;;;5.53;3.80;;;;;;;;;;766662;180;626987;-77
2023/04/01 01:27:59;;;;;;;8.27;4.17;;;;;;;;;;764002;183;627162;-79
2023/04/01 01:30:26;;;;;;;6.10;3.70;;;;;;;;;;770941;179;639095;-79
2023/04/01 01:32:52;;;;;;;7.10;4.00;;;;;;;;;;764757;179;640166;-79
2023/04/01 01:35:22;;;;;;;6.03;4.20;;;;;;;;;;762891;181;629655;-78
2023/04/01 01:37:48;;;;;;;12.60;4.37;;;;;;;;;;763031;182;625530;-78
2023/04/01 01:40:13;;;;;;;9.40;4.30;;;;;;;;;;764992;181;621660;-78
2023/04/01 01:42:39;;;;;;;6.33;3.60;;;;;;;;;;761310;182;640871;-80
2023/04/01 01:45:06;;;;;;;6.80;3.27;;;;;;;;;;757689;183;636610;-80
2023/04/01 01:47:31;;;;;;;7.00;4.27;;;;;;;;;;766532;181;626468;-79
2023/04/01 01:49:57;;;;;;;8.57;3.30;;;;;;;;;;762605;183;632678;-79
2023/04/01 01:52:23;;;;;;;5.37;4.43;;;;;;;;;;755427;181;647377;-78
2023/04/01 01:54:49;;;;;;;5.13;3.63;;;;;;;;;;751823;180;636882;-80
2023/04/01 01:57:15;;;;;;;7.63;3.43;;;;;;;;;;763314;184;627044;-78
2023/04/01 01:59:41;;;;;;;8.93;4.43;;;;;;;;;;753261;182;693101;-79
2023/04/01 02:02:07;;;;;;;7.10;4.00;;;;;;;;;;754768;183;621509;-78
2023/04/01 02:04:32;;;;;;;7.13;4.40;;;;;;;;;;761425;182;630235;-79
2023/04/01 02:06:58;;;;;;;9.10;4.60;;;;;;;;;;764447;181;630578;-79
2023/04/01 02:09:24;;;;;;;7.60;3.70;;;;;;;;;;766241;182;636511;-79
2023/04/01 02:11:51;;;;;;;7.80;4.27;;;;;;;;;;767276;182;618928;-78
2023/04/01 02:14:17;;;;;;;7.27;3.97;;;;;;;;;;762590;183;637364;-77
2023/04/01 02:16:42;;;;;;;5.70;3.80;;;;;;;;;;766988;181;640057;-76
2023/04/01 02:19:09;;;;;;;6.45;3.95;;;;;;;;;;766337;182;618134;-78
2023/04/01 02:21:35;;;;;;;7.80;4.97;;;;;;;;;;764017;183;627468;-78
2023/04/01 02:24:00;;;;;;;8.20;4.17;;;;;;;;;;760379;182;626829;-79
2023/04/01 02:26:26;;;;;;;6.03;3.50;;;;;;;;;;766579;182;636625;-78
2023/04/01 02:28:52;;;;;;;6.87;4.20;;;;;;;;;;766097;181;626737;-77
2023/04/01 02:31:18;;;;;;;8.80;3.60;;;;;;;;;;755532;182;631059;-79
2023/04/01 02:33:44;;;;;;;5.10;3.43;;;;;;;;;;767580;180;632595;-78
2023/04/01 02:36:10;;;;;;;8.73;3.90;;;;;;;;;;771633;182;632710;-79
2023/04/01 02:38:36;;;;;;;6.80;3.90;;;;;;;;;;761425;184;630691;-78
2023/04/01 02:41:02;;;;;;;9.83;4.27;;;;;;;;;;759470;182;636054;-79
2023/04/01 02:43:28;;;;;;;5.77;3.67;;;;;;;;;;752953;184;643201;-78
2023/04/01 02:45:54;;;;;;;6.10;3.70;;;;;;;;;;750768;185;619009;-79
2023/04/01 02:48:20;;;;;;;5.27;3.73;;;;;;;;;;756388;183;627224;-78
2023/04/01 02:50:45;;;;;;;16.40;5.13;;;;;;;;;;756246;184;617230;-79
2023/04/01 02:53:11;;;;;;;10.00;4.87;;;;;;;;;;758217;182;633506;-78
2023/04/01 02:55:37;;;;;;;10.33;5.27;;;;;;;;;;768168;181;637469;-77
2023/04/01 02:58:03;;;;;;;6.53;4.50;;;;;;;;;;757804;184;620441;-77
2023/04/01 03:00:29;;;;;;;9.17;4.70;;;;;;;;;;766672;181;621654;-78
2023/04/01 03:02:56;;;;;;;7.13;4.30;;;;;;;;;;763757;183;639868;-78
2023/04/01 03:05:21;;;;;;;8.80;4.10;;;;;;;;;;749000;182;663561;-78
2023/04/01 03:07:46;;;;;;;6.70;4.27;;;;;;;;;;762450;183;625405;-79
2023/04/01 03:10:12;;;;;;;9.87;4.10;;;;;;;;;;756164;183;633396;-79
2023/04/01 03:12:38;;;;;;;6.70;4.33;;;;;;;;;;752297;185;647094;-78
2023/04/01 03:15:04;;;;;;;10.57;3.43;;;;;;;;;;758282;183;637211;-79
2023/04/01 03:17:30;;;;;;;7.00;4.27;;;;;;;;;;768189;183;624960;-79
2023/04/01 03:19:56;;;;;;;6.40;3.70;;;;;;;;;;756150;182;618200;-79
2023/04/01 03:22:22;;;;;;;7.43;4.27;;;;;;;;;;756887;185;641264;-80
2023/04/01 03:24:48;;;;;;;6.80;3.20;;;;;;;;;;761621;184;647755;-78
2023/04/01 03:27:13;;;;;;;6.50;3.27;;;;;;;;;;765296;181;642937;-78
2023/04/01 03:29:39;;;;;;;8.23;4.07;;;;;;;;;;765409;182;644184;-79
2023/04/01 03:32:05;;;;;;;4.63;3.80;;;;;;;;;;767901;182;628611;-80
2023/04/01 03:34:31;;;;;;;5.80;4.20;;;;;;;;;;767213;181;624762;-78
2023/04/01 03:36:57;;;;;;;7.00;4.43;;;;;;;;;;757216;184;625085;-79
2023/04/01 03:39:23;;;;;;;5.00;4.40;;;;;;;;;;756967;184;642449;-78
2023/04/01 03:41:48;;;;;;;12.37;4.90;;;;;;;;;;758057;184;632324;-76
2023/04/01 03:44:14;;;;;;;7.53;4.70;;;;;;;;;;749671;185;627383;-78
2023/04/01 03:46:40;;;;;;;8.93;5.03;;;;;;;;;;750980;185;629529;-79
2023/04/01 03:49:11;;;;;;;7.73;4.53;;;;;;;;;;762107;185;627030;-78
2023/04/01 03:51:32;;;;;;;8.40;5.40;;;;;;;;;;765766;179;628012;-78
2023/04/01 03:53:58;;;;;;;9.90;5.17;;;;;;;;;;764383;181;633878;-77
2023/04/01 03:56:24;;;;;;;13.03;5.67;;;;;;;;;;765757;182;643763;-78
2023/04/01 03:58:49;;;;;;;8.13;5.30;;;;;;;;;;764731;181;638799;-77
2023/04/01 04:01:16;;;;;;;7.73;5.10;;;;;;;;;;762357;182;638291;-79
2023/04/01 04:03:43;;;;;;;9.30;4.90;;;;;;;;;;767404;182;624597;-78
2023/04/01 04:06:08;;;;;;;5.90;3.93;;;;;;;;;;758585;181;639035;-78
2023/04/01 04:08:34;;;;;;;8.53;4.63;;;;;;;;;;764542;180;647454;-79
2023/04/01 04:10:59;;;;;;;6.87;4.40;;;;;;;;;;765751;181;649947;-78
2023/04/01 04:13:25;;;;;;;9.20;4.03;;;;;;;;;;768293;182;614623;-78
2023/04/01 04:15:51;;;;;;;10.57;4.57;;;;;;;;;;763511;181;641301;-79
2023/04/01 04:18:17;;;;;;;7.80;4.13;;;;;;;;;;762774;183;633128;-78
2023/04/01 04:20:46;;;;;;;9.03;5.07;;;;;;;;;;769118;182;639684;-79
2023/04/01 04:23:10;;;;;;;10.73;6.97;;;;;;;;;;761560;182;631694;-79
2023/04/01 04:25:36;;;;;;;9.20;3.87;;;;;;;;;;764805;181;631475;-78
2023/04/01 04:28:02;;;;;;;7.07;3.93;;;;;;;;;;766066;182;643300;-78
2023/04/01 04:30:28;;;;;;;7.90;4.70;;;;;;;;;;756439;182;626497;-77
2023/04/01 04:32:54;;;;;;;12.27;5.03;;;;;;;;;;759097;182;626786;-79
2023/04/01 04:35:20;;;;;;;13.80;4.03;;;;;;;;;;757967;183;653884;-79
2023/04/01 04:37:45;;;;;;;6.30;3.43;;;;;;;;;;766606;182;670304;-77
2023/04/01 04:40:11;;;;;;;9.10;4.57;;;;;;;;;;758457;183;879374;-78
2023/04/01 04:42:39;;;;;;;5.73;3.70;;;;;;;;;;756123;181;1502540;-77
2023/04/01 04:45:05;;;;;;;9.60;4.17;;;;;;;;;;765398;183;1115109;-76
2023/04/01 04:47:31;;;;;;;7.30;3.80;;;;;;;;;;760875;181;756814;-79
2023/04/01 04:49:57;;;;;;;5.87;4.40;;;;;;;;;;767423;181;708620;-76
2023/04/01 04:52:22;;;;;;;8.27;4.20;;;;;;;;;;766485;181;696241;-78
2023/04/01 04:54:48;;;;;;;9.67;3.73;;;;;;;;;;763611;181;640672;-79
2023/04/01 04:57:14;;;;;;;6.13;3.80;;;;;;;;;;762924;181;738362;-78
2023/04/01 04:59:40;;;;;;;7.43;4.30;;;;;;;;;;761709;182;626495;-78
2023/04/01 05:02:06;;;;;;;11.23;4.10;;;;;;;;;;761985;182;631382;-79
2023/04/01 05:04:34;;;;;;;6.80;4.00;;;;;;;;;;756816;182;654840;-77
2023/04/01 05:07:00;;;;;;;10.47;4.17;;;;;;;;;;763818;184;632177;-79
2023/04/01 05:09:26;;;;;;;9.20;4.67;;;;;;;;;;755460;183;645266;-78
2023/04/01 05:11:51;;;;;;;4.63;3.17;;;;;;;;;;754750;181;638480;-78
2023/04/01 05:14:17;;;;;;;5.60;3.70;;;;;;;;;;763621;185;647491;-78
2023/04/01 05:16:43;;;;;;;6.20;3.23;;;;;;;;;;765923;185;635147;-80
2023/04/01 05:19:09;;;;;;;5.77;2.90;;;;;;;;;;761613;184;619829;-78
2023/04/01 05:21:35;;;;;;;5.90;3.07;;;;;;;;;;759894;182;625061;-80
2023/04/01 05:24:01;;;;;;;5.70;3.23;;;;;;;;;;760233;181;633376;-79
2023/04/01 05:26:26;;;;;;;6.53;3.23;;;;;;;;;;764161;182;629641;-79
2023/04/01 05:28:52;;;;;;;4.07;2.90;;;;;;;;;;765361;182;640272;-79
2023/04/01 05:31:18;;;;;;;3.80;2.93;;;;;;;;;;766150;181;639156;-80
2023/04/01 05:33:44;;;;;;;7.23;3.33;;;;;;;;;;769010;182;630337;-78
2023/04/01 05:36:10;;;;;;;4.83;2.30;;;;;;;;;;763688;181;862126;-80
2023/04/01 05:38:36;;;;;;;5.23;2.20;;;;;;;;;;759551;180;614075;-79
2023/04/01 05:41:02;;;;;;;6.07;2.80;;;;;;;;;;763084;183;614686;-79
2023/04/01 05:43:28;;;;;;;6.90;2.87;;;;;;;;;;751204;183;616197;-79
2023/04/01 05:45:53;;;;;;;6.10;2.83;;;;;;;;;;757046;184;657216;-79
2023/04/01 05:48:19;;;;;;;5.10;2.00;;;;;;;;;;756982;182;631699;-78
2023/04/01 05:50:45;;;;;;;6.90;2.77;;;;;;;;;;763586;182;618740;-79
2023/04/01 05:53:11;;;;;;;3.10;1.80;;;;;;;;;;754091;182;646721;-79
2023/04/01 05:55:37;;;;;;;8.67;2.83;;;;;;;;;;763094;182;631217;-79
2023/04/01 05:58:03;;;;;;;4.50;2.53;;;;;;;;;;766453;181;629384;-79
2023/04/01 06:00:28;;;;;;;3.10;2.00;;;;;;;;;;761570;182;859657;-78
2023/04/01 06:02:54;;;;;;;3.80;2.30;;;;;;;;;;762031;185;627143;-80
2023/04/01 06:05:20;;;;;;;5.23;2.87;;;;;;;;;;766865;182;625114;-79
2023/04/01 06:07:46;;;;;;;4.43;2.00;;;;;;;;;;765142;182;656803;-80
2023/04/01 06:10:12;;;;;;;4.30;2.20;;;;;;;;;;761512;184;626954;-77
2023/04/01 06:12:39;;;;;;;6.93;2.85;;;;;;;;;;760082;184;646670;-80
2023/04/01 06:15:18;;;;;;;4.10;2.40;;;;;;;;;;756707;182;624955;-80
2023/04/01 06:17:47;;;;;;;10.10;2.73;;;;;;;;;;755508;184;646487;-79
2023/04/01 06:20:30;;;;;;;4.50;2.47;;;;;;;;;;761369;181;625231;-79
2023/04/01 06:23:11;;;;;;;7.43;2.67;;;;;;;;;;764313;181;626142;-79
2023/04/01 06:25:43;;;;;;;4.93;2.63;;;;;;;;;;758095;184;663624;-80
2023/04/01 06:28:15;;;;;;;4.17;2.57;;;;;;;;;;759041;182;666555;-79
2023/04/01 06:30:41;;;;;;;3.57;1.90;;;;;;;;;;758718;182;638616;-77
2023/04/01 06:33:28;;;;;;;4.10;2.47;;;;;;;;;;765604;182;614401;-79
2023/04/01 06:35:51;;;;;;;4.57;2.57;;;;;;;;;;768689;180;661454;-80
2023/04/01 06:38:22;;;;;;;3.30;1.93;;;;;;;;;;755738;182;627573;-79
2023/04/01 06:40:54;;;;;;;4.80;2.23;;;;;;;;;;769986;182;646020;-79
2023/04/01 06:43:37;;;;;;;6.80;2.57;;;;;;;;;;758638;182;650396;-78
2023/04/01 06:46:05;;;;;;;4.53;2.70;;;;;;;;;;764023;182;626895;-79
2023/04/01 06:48:36;;;;;;;8.07;2.67;;;;;;;;;;771123;177;631514;-80
2023/04/01 06:51:12;;;;;;;10.47;2.53;;;;;;;;;;761191;182;633719;-77
2023/04/01 06:53:57;;;;;;;4.87;2.33;;;;;;;;;;762861;181;793625;-78
2023/04/01 06:56:22;;;;;;;5.80;2.00;;;;;;;;;;755174;182;643522;-78
2023/04/01 06:58:48;;;;;;;4.50;2.67;;;;;;;;;;761897;179;706118;-80
2023/04/01 07:01:14;;;;;;;3.47;2.50;;;;;;;;;;767446;180;633787;-77
2023/04/01 07:03:40;;;;;;;6.40;2.00;;;;;;;;;;755802;182;644965;-79
2023/04/01 07:06:06;;;;;;;8.73;2.60;;;;;;;;;;762203;182;645016;-79
2023/04/01 07:08:32;;;;;;;4.97;2.53;;;;;;;;;;769005;180;643791;-79
2023/04/01 07:10:58;;;;;;;3.77;2.00;;;;;;;;;;754498;183;657712;-80
2023/04/01 07:13:24;;;;;;;2.90;1.60;;;;;;;;;;766526;179;633996;-81
2023/04/01 07:15:51;;;;;;;6.40;2.40;;;;;;;;;;763910;179;628434;-79
2023/04/01 07:18:18;;;;;;;4.30;2.60;;;;;;;;;;754023;184;622347;-79
2023/04/01 07:20:48;;;;;;;4.23;2.60;;;;;;;;;;760483;182;649474;-80
2023/04/01 07:23:17;;;;;;;5.93;3.20;;;;;;;;;;752882;185;639236;-80
2023/04/01 07:25:44;;;;;;;7.10;3.87;;;;;;;;;;758958;181;666375;-77
2023/04/01 07:28:11;;;;;;;6.53;3.30;;;;;;;;;;759370;184;638173;-78
2023/04/01 07:30:37;;;;;;;6.33;2.37;;;;;;;;;;760542;183;629358;-78
2023/04/01 07:33:04;;;;;;;3.33;2.20;;;;;;;;;;756577;182;632978;-77
2023/04/01 07:35:31;;;;;;;3.87;2.63;;;;;;;;;;767070;183;616134;-77
2023/04/01 07:37:59;;;;;;;4.30;2.40;;;;;;;;;;750950;184;672613;-77
2023/04/01 07:40:31;;;;;;;3.00;1.50;;;;;;;;;;754514;182;651189;-78
2023/04/01 07:43:10;;;;;;;2.90;1.70;;;;;;;;;;761450;181;621145;-77
2023/04/01 07:45:42;;;;;;;5.80;2.10;;;;;;;;;;761123;181;646604;-78
2023/04/01 07:48:10;;;;;;;3.50;1.83;;;;;;;;;;771638;181;629097;-77
2023/04/01 07:50:36;;;;;;;7.40;2.17;;;;;;;;;;770991;179;632512;-77
2023/04/01 07:53:07;;;;;;;3.40;1.73;;;;;;;;;;756290;182;682036;-78
2023/04/01 07:55:34;;;;;;;3.67;2.60;;;;;;;;;;754932;182;654608;-78
2023/04/01 07:58:05;;;;;;;5.70;2.20;;;;;;;;;;769282;182;653064;-78
2023/04/01 08:00:34;;;;;;;5.43;2.37;;;;;;;;;;759393;181;653702;-79
2023/04/01 08:03:00;;;;;;;3.00;1.90;;;;;;;;;;753983;182;629083;-78
2023/04/01 08:05:28;;;;;;;4.93;2.77;;;;;;;;;;763628;182;625451;-78
2023/04/01 08:07:58;;;;;;;4.10;1.90;;;;;;;;;;760840;182;649384;-79
2023/04/01 08:10:23;;;;;;;3.43;2.27;;;;;;;;;;767603;182;648414;-77
2023/04/01 08:12:53;;;;;;;4.00;2.20;;;;;;;;;;768491;182;637902;-79
2023/04/01 08:15:26;;;;;;;2.97;1.83;;;;;;;;;;758645;182;640142;-81
2023/04/01 08:17:53;;;;;;;4.13;1.90;;;;;;;;;;768109;181;661928;-80
2023/04/01 08:20:19;;;;;;;3.60;2.13;;;;;;;;;;759067;181;1604855;-78
2023/04/01 08:22:45;;;;;;;7.53;2.80;;;;;;;;;;756384;184;618797;-78
2023/04/01 08:25:12;;;;;;;6.67;2.87;;;;;;;;;;750276;185;648626;-79
2023/04/01 08:27:38;;;;;;;6.00;2.53;;;;;;;;;;766089;184;644099;-81
2023/04/01 08:30:04;;;;;;;4.10;2.20;;;;;;;;;;755122;184;628932;-80
2023/04/01 08:32:32;;;;;;;7.53;2.00;;;;;;;;;;747692;188;626762;-79
2023/04/01 08:34:58;;;;;;;3.60;1.50;;;;;;;;;;757969;182;638329;-80
2023/04/01 08:37:24;;;;;;;4.00;1.77;;;;;;;;;;747818;183;1597024;-80
2023/04/01 08:39:50;;;;;;;4.77;2.60;;;;;;;;;;772049;179;633086;-80
2023/04/01 08:42:17;;;;;;;4.43;1.90;;;;;;;;;;775576;179;659525;-81
2023/04/01 08:44:44;;;;;;;6.77;2.00;;;;;;;;;;770343;179;618613;-80
2023/04/01 08:47:10;;;;;;;8.10;2.20;;;;;;;;;;758669;183;632929;-79
2023/04/01 08:49:41;;;;;;;4.60;2.10;;;;;;;;;;756907;182;993408;-80
2023/04/01 08:52:07;;;;;;;6.10;1.57;;;;;;;;;;758474;183;626664;-81
2023/04/01 08:54:38;;;;;;;4.37;1.53;;;;;;;;;;755293;182;630294;-80
2023/04/01 08:57:04;;;;;;;3.70;1.80;;;;;;;;;;763118;182;666567;-80
2023/04/01 08:59:30;;;;;;;7.90;2.63;;;;;;;;;;753279;184;664791;-79
2023/04/01 09:02:11;;;;;;;6.57;3.17;;;;;;;;;;763525;184;665983;-80
2023/04/01 09:04:52;;;;;;;3.77;1.90;;;;;;;;;;765644;184;633291;-80
2023/04/01 09:07:18;;;;;;;4.57;1.70;;;;;;;;;;762354;183;637088;-79
2023/04/01 09:09:50;;;;;;;3.80;1.30;;;;;;;;;;753410;182;696858;-79
2023/04/01 09:12:24;;;;;;;15.37;7.33;;;;;;;;;;767910;181;632483;-80
2023/04/01 09:15:06;;;;;;;5.93;2.97;;;;;;;;;;765441;182;635641;-79
2023/04/01 09:17:47;;;;;;;5.83;2.27;;;;;;;;;;766389;181;649028;-78
2023/04/01 09:20:31;;;;;;;4.80;1.97;;;;;;;;;;759151;183;641791;-79
2023/04/01 09:23:02;;;;;;;21.33;11.30;;;;;;;;;;768457;181;622779;-78
2023/04/01 09:25:34;;;;;;;5.07;2.70;;;;;;;;;;760200;180;673139;-78
2023/04/01 09:28:02;;;;;;;5.70;2.03;;;;;;;;;;763921;184;624843;-80
2023/04/01 09:30:33;;;;;;;3.20;1.57;;;;;;;;;;755980;184;672209;-79
2023/04/01 09:33:02;;;;;;;5.50;1.57;;;;;;;;;;765501;181;675407;-80
2023/04/01 09:35:34;;;;;;;3.50;1.50;;;;;;;;;;753007;186;621078;-80
2023/04/01 09:38:05;;;;;;;7.53;1.67;;;;;;;;;;753616;186;613924;-81
2023/04/01 09:40:32;;;;;;;8.33;2.37;;;;;;;;;;761377;182;632415;-80
2023/04/01 09:43:17;;;;;;;11.53;1.70;;;;;;;;;;770321;179;657180;-80
2023/04/01 09:45:49;;;;;;;4.90;2.30;;;;;;;;;;752283;183;631965;-79
2023/04/01 09:48:18;;;;;;;5.10;1.87;;;;;;;;;;755753;182;629520;-79
2023/04/01 09:50:44;;;;;;;11.90;1.80;;;;;;;;;;759521;182;642052;-78
2023/04/01 09:53:14;;;;;;;2.63;1.40;;;;;;;;;;757308;184;652449;-80
2023/04/01 09:55:50;;;;;;;5.53;2.37;;;;;;;;;;756480;182;1946569;-79
2023/04/01 09:58:30;;;;;;;7.93;3.67;;;;;;;;;;764289;182;641917;-81
2023/04/01 10:00:59;;;;;;;4.23;1.97;;;;;;;;;;753723;184;645437;-78
2023/04/01 10:03:23;;;;;;;3.00;1.43;;;;;;;;;;768492;182;624478;-81
2023/04/01 10:05:54;;;;;;;3.90;1.50;;;;;;;;;;757539;182;638483;-79
2023/04/01 10:08:20;;;;;;;3.57;1.73;;;;;;;;;;762176;182;631502;-80
2023/04/01 10:10:50;;;;;;;3.00;1.20;;;;;;;;;;767505;181;637704;-79
2023/04/01 10:13:18;;;;;;;2.63;1.37;;;;;;;;;;766678;182;629892;-80
2023/04/01 10:15:44;;;;;;;10.43;1.73;;;;;;;;;;763399;181;665284;-78
2023/04/01 10:18:28;;;;;;;3.07;1.40;;;;;;;;;;758294;183;630954;-81
2023/04/01 10:21:12;;;;;;;5.00;1.50;;;;;;;;;;748908;184;641301;-81
2023/04/01 10:23:40;;;;;;;4.00;1.40;;;;;;;;;;756188;182;645552;-79
2023/04/01 10:26:07;;;;;;;2.57;1.13;;;;;;;;;;757570;182;714648;-79
2023/04/01 10:28:35;;;;;;;3.13;1.47;;;;;;;;;;762116;182;629481;-80
2023/04/01 10:31:19;;;;;;;3.43;1.30;;;;;;;;;;761745;181;645768;-80
2023/04/01 10:34:00;;;;;;;3.83;1.50;;;;;;;;;;754595;181;696127;-79
2023/04/01 10:36:41;;;;;;;2.83;1.40;;;;;;;;;;753281;182;653546;-80
2023/04/01 10:39:08;;;;;;;5.43;1.67;;;;;;;;;;761066;182;630929;-80
2023/04/01 10:41:40;;;;;;;4.70;1.23;;;;;;;;;;764633;182;1311400;-80
2023/04/01 10:44:10;;;;;;;3.90;1.40;;;;;;;;;;776664;179;642965;-78
2023/04/01 10:46:54;;;;;;;4.17;1.63;;;;;;;;;;769162;181;644966;-81
2023/04/01 10:49:41;;;;;;;2.80;1.20;;;;;;;;;;775353;181;646500;-80
2023/04/01 10:52:07;;;;;;;5.80;1.97;;;;;;;;;;771451;181;648232;-80
2023/04/01 10:54:36;;;;;;;4.10;1.77;;;;;;;;;;758287;184;667442;-81
2023/04/01 10:57:08;;;;;;;3.50;1.57;;;;;;;;;;747936;183;621744;-81
2023/04/01 10:59:51;;;;;;;3.30;1.77;;;;;;;;;;763830;182;740479;-81
2023/04/01 11:02:32;;;;;;;4.67;1.30;;;;;;;;;;769260;181;626257;-80
2023/04/01 11:05:04;;;;;;;3.80;1.50;;;;;;;;;;746673;185;653797;-79
2023/04/01 11:07:36;;;;;;;4.27;1.67;;;;;;;;;;761877;183;626740;-80
2023/04/01 11:10:07;;;;;;;4.83;2.30;;;;;;;;;;775415;181;632999;-80
2023/04/01 11:12:39;;;;;;;5.67;1.67;;;;;;;;;;767887;182;636217;-77
2023/04/01 11:15:21;;;;;;;3.13;1.67;;;;;;;;;;762714;182;688238;-80
2023/04/01 11:18:01;;;;;;;4.47;1.60;;;;;;;;;;749779;182;662124;-80
2023/04/01 11:20:29;;;;;;;2.63;2.07;;;;;;;;;;755959;183;756661;-80
2023/04/01 11:22:57;;;;;;;5.23;1.83;;;;;;;;;;763520;184;627098;-81
2023/04/01 11:25:23;;;;;;;3.60;1.47;;;;;;;;;;760262;185;633037;-80
2023/04/01 11:27:54;;;;;;;4.10;1.47;;;;;;;;;;760448;182;646667;-81
2023/04/01 11:30:23;;;;;;;10.40;6.17;;;;;;;;;;755888;182;626275;-78
2023/04/01 11:32:50;;;;;;;7.20;3.60;;;;;;;;;;761563;182;629208;-80
2023/04/01 11:35:21;;;;;;;6.83;2.37;;;;;;;;;;761073;182;649437;-81
2023/04/01 11:37:47;;;;;;;7.20;2.83;;;;;;;;;;761570;183;622829;-80
2023/04/01 11:40:23;;;;;;;6.60;4.00;;;;;;;;;;760841;183;615235;-80
2023/04/01 11:42:48;;;;;;;13.30;7.10;;;;;;;;;;762701;183;682462;-81
2023/04/01 11:45:33;;;;;;;4.10;1.87;;;;;;;;;;761764;182;630469;-80
2023/04/01 11:48:14;;;;;;;2.93;1.20;;;;;;;;;;764521;183;633827;-80
2023/04/01 11:50:41;;;;;;;3.77;2.47;;;;;;;;;;766024;182;633813;-80
2023/04/01 11:53:13;;;;;;;7.53;2.20;;;;;;;;;;756927;183;709547;-79
2023/04/01 11:55:40;;;;;;;5.97;2.67;;;;;;;;;;755767;182;669392;-80
2023/04/01 11:58:07;;;;;;;4.57;2.70;;;;;;;;;;754238;184;631189;-80
2023/04/01 12:00:47;;;;;;;3.10;1.57;;;;;;;;;;740325;187;623962;-79
2023/04/01 12:03:15;;;;;;;3.17;1.70;;;;;;;;;;731565;190;632205;-79
2023/04/01 12:05:44;;;;;;;5.60;2.90;;;;;;;;;;731769;188;638946;-79
2023/04/01 12:08:15;;;;;;;5.10;2.90;;;;;;;;;;745261;186;676228;-80
2023/04/01 12:10:55;;;;;;;4.37;2.70;;;;;;;;;;753119;184;634995;-80
2023/04/01 12:13:27;;;;;;;3.97;1.80;;;;;;;;;;758147;184;714693;-80
2023/04/01 12:15:58;;;;;;;3.60;1.87;;;;;;;;;;766343;181;638486;-80
2023/04/01 12:18:41;;;;;;;3.57;1.77;;;;;;;;;;762941;184;632427;-79
2023/04/01 12:21:22;;;;;;;6.03;3.03;;;;;;;;;;758942;183;640161;-81
2023/04/01 12:23:48;;;;;;;5.07;2.03;;;;;;;;;;759362;184;631490;-80
2023/04/01 12:26:17;;;;;;;9.03;8.03;;;;;;;;;;753033;183;642610;-80
2023/04/01 12:29:02;;;;;;;8.60;3.20;;;;;;;;;;753234;182;630611;-81
2023/04/01 12:31:30;;;;;;;9.90;5.10;;;;;;;;;;751579;185;627166;-81
2023/04/01 12:33:58;;;;;;;11.80;4.77;;;;;;;;;;765678;182;631880;-80
2023/04/01 12:36:29;;;;;;;4.60;2.40;;;;;;;;;;756396;187;624917;-80
2023/04/01 12:39:18;;;;;;;8.37;3.80;;;;;;;;;;752547;182;654592;-77
2023/04/01 12:41:46;;;;;;;4.07;1.47;;;;;;;;;;748981;184;648819;-81
2023/04/01 12:44:23;;;;;;;6.53;1.50;;;;;;;;;;764114;181;644624;-79
2023/04/01 12:46:54;;;;;;;4.60;1.40;;;;;;;;;;766415;180;667581;-78
2023/04/01 12:49:41;;;;;;;2.50;1.30;;;;;;;;;;768926;181;621186;-79
2023/04/01 12:52:09;;;;;;;4.30;1.30;;;;;;;;;;764853;181;649015;-78
2023/04/01 12:54:39;;;;;;;3.13;1.30;;;;;;;;;;771877;181;642045;-79
2023/04/01 12:57:05;;;;;;;7.33;5.20;;;;;;;;;;763738;182;658229;-80
2023/04/01 12:59:46;;;;;;;4.00;3.60;;;;;;;;;;764030;182;676595;-80
2023/04/01 13:02:14;;;;;;;3.90;2.20;;;;;;;;;;764307;183;746452;-80
2023/04/01 13:04:46;;;;;;;2.90;1.50;;;;;;;;;;757635;184;628432;-79
2023/04/01 13:07:22;;;;;;;7.60;2.10;;;;;;;;;;771210;181;637298;-79
2023/04/01 13:10:04;;;;;;;2.33;1.33;;;;;;;;;;769248;182;633949;-80
2023/04/01 13:12:37;;;;;;;2.73;1.20;;;;;;;;;;771915;181;639964;-80
2023/04/01 13:15:08;;;;;;;3.00;1.03;;;;;;;;;;751228;183;634488;-79
2023/04/01 13:17:37;;;;;;;2.30;1.10;;;;;;;;;;756451;182;650019;-79
2023/04/01 13:20:05;;;;;;;3.17;1.77;;;;;;;;;;761336;182;693042;-80
2023/04/01 13:22:36;;;;;;;2.70;1.50;;;;;;;;;;764146;182;650374;-77
2023/04/01 13:25:03;;;;;;;2.70;1.70;;;;;;;;;;762771;182;642067;-80
2023/04/01 13:27:31;;;;;;;3.60;1.80;;;;;;;;;;752513;181;675705;-79
2023/04/01 13:30:15;;;;;;;3.30;1.33;;;;;;;;;;759697;181;710867;-78
2023/04/01 13:32:57;;;;;;;2.30;1.03;;;;;;;;;;744198;186;634289;-80
2023/04/01 13:35:25;;;;;;;3.20;1.53;;;;;;;;;;745446;184;1536720;-78
2023/04/01 13:37:54;;;;;;;2.83;1.47;;;;;;;;;;763109;183;615203;-77
2023/04/01 13:40:24;;;;;;;2.60;1.30;;;;;;;;;;758556;182;686804;-79
2023/04/01 13:43:00;;;;;;;4.40;1.63;;;;;;;;;;768832;181;674527;-82
2023/04/01 13:45:26;;;;;;;2.77;1.60;;;;;;;;;;767784;181;622990;-80
2023/04/01 13:47:58;;;;;;;1.77;0.80;;;;;;;;;;749822;185;646677;-81
2023/04/01 13:50:41;;;;;;;2.50;1.13;;;;;;;;;;743820;188;631315;-80
2023/04/01 13:53:09;;;;;;;2.50;1.20;;;;;;;;;;769317;184;610774;-79
2023/04/01 13:55:38;;;;;;;5.57;1.50;;;;;;;;;;760009;181;655442;-78
2023/04/01 13:58:19;;;;;;;2.50;1.60;;;;;;;;;;765929;179;626630;-80
2023/04/01 14:00:51;;;;;;;4.93;1.80;;;;;;;;;;766451;182;720932;-80
2023/04/01 14:03:36;;;;;;;2.37;1.10;;;;;;;;;;761961;181;620253;-80
2023/04/01 14:06:04;;;;;;;2.83;1.30;;;;;;;;;;757703;182;629900;-80
2023/04/01 14:08:46;;;;;;;4.77;1.73;;;;;;;;;;771564;182;665802;-79
2023/04/01 14:11:23;;;;;;;2.90;1.30;;;;;;;;;;766661;183;628790;-80
2023/04/01 14:14:07;;;;;;;2.90;1.20;;;;;;;;;;754334;183;642025;-78
2023/04/01 14:16:51;;;;;;;3.50;1.00;;;;;;;;;;746832;189;633092;-78
2023/04/01 14:19:28;;;;;;;2.60;1.40;;;;;;;;;;756748;184;660742;-78
2023/04/01 14:21:54;;;;;;;4.50;1.53;;;;;;;;;;754945;186;636594;-80
2023/04/01 14:24:24;;;;;;;2.83;1.40;;;;;;;;;;761874;183;700199;-79
2023/04/01 14:26:54;;;;;;;3.90;1.90;;;;;;;;;;762836;183;634750;-78
2023/04/01 14:29:21;;;;;;;3.63;1.60;;;;;;;;;;755432;184;893968;-80
2023/04/01 14:31:50;;;;;;;5.17;1.70;;;;;;;;;;752636;184;770856;-80
2023/04/01 14:34:33;;;;;;;3.50;1.90;;;;;;;;;;764682;182;625054;-80
2023/04/01 14:37:01;;;;;;;3.90;1.73;;;;;;;;;;755711;182;632021;-78
2023/04/01 14:39:45;;;;;;;2.90;1.70;;;;;;;;;;754045;184;683491;-80